地図

経路データ

SID SEASON NUMBER BASIN SUBBASIN NAME ISO_TIME NATURE LAT LON WMO_WIND WMO_PRES WMO_AGENCY TRACK_TYPE DIST2LAND LANDFALL IFLAG USA_AGENCY USA_ATCF_ID USA_LAT USA_LON USA_RECORD USA_STATUS USA_WIND USA_PRES USA_SSHS USA_R34_NE USA_R34_SE USA_R34_SW USA_R34_NW USA_R50_NE USA_R50_SE USA_R50_SW USA_R50_NW USA_R64_NE USA_R64_SE USA_R64_SW USA_R64_NW USA_POCI USA_ROCI USA_RMW USA_EYE TOKYO_LAT TOKYO_LON TOKYO_GRADE TOKYO_WIND TOKYO_PRES TOKYO_R50_DIR TOKYO_R50_LONG TOKYO_R50_SHORT TOKYO_R30_DIR TOKYO_R30_LONG TOKYO_R30_SHORT TOKYO_LAND CMA_LAT CMA_LON CMA_CAT CMA_WIND CMA_PRES HKO_LAT HKO_LON HKO_CAT HKO_WIND HKO_PRES NEWDELHI_LAT NEWDELHI_LON NEWDELHI_GRADE NEWDELHI_WIND NEWDELHI_PRES NEWDELHI_CI NEWDELHI_DP NEWDELHI_POCI REUNION_LAT REUNION_LON REUNION_TYPE REUNION_WIND REUNION_PRES REUNION_TNUM REUNION_CI REUNION_RMW REUNION_R34_NE REUNION_R34_SE REUNION_R34_SW REUNION_R34_NW REUNION_R50_NE REUNION_R50_SE REUNION_R50_SW REUNION_R50_NW REUNION_R64_NE REUNION_R64_SE REUNION_R64_SW REUNION_R64_NW BOM_LAT BOM_LON BOM_TYPE BOM_WIND BOM_PRES BOM_TNUM BOM_CI BOM_RMW BOM_R34_NE BOM_R34_SE BOM_R34_SW BOM_R34_NW BOM_R50_NE BOM_R50_SE BOM_R50_SW BOM_R50_NW BOM_R64_NE BOM_R64_SE BOM_R64_SW BOM_R64_NW BOM_ROCI BOM_POCI BOM_EYE BOM_POS_METHOD BOM_PRES_METHOD NADI_LAT NADI_LON NADI_CAT NADI_WIND NADI_PRES WELLINGTON_LAT WELLINGTON_LON WELLINGTON_WIND WELLINGTON_PRES DS824_LAT DS824_LON DS824_STAGE DS824_WIND DS824_PRES TD9636_LAT TD9636_LON TD9636_STAGE TD9636_WIND TD9636_PRES TD9635_LAT TD9635_LON TD9635_WIND TD9635_PRES TD9635_ROCI NEUMANN_LAT NEUMANN_LON NEUMANN_CLASS NEUMANN_WIND NEUMANN_PRES MLC_LAT MLC_LON MLC_CLASS MLC_WIND MLC_PRES USA_GUST BOM_GUST BOM_GUST_PER REUNION_GUST REUNION_GUST_PER USA_SEAHGT USA_SEARAD_NE USA_SEARAD_SE USA_SEARAD_SW USA_SEARAD_NW STORM_SPEED STORM_DIR
1979269N19133 1979 94 WP MM NOT_NAMED 1979-09-25 12:00:00 NR 18.8000 132.700 main 1041 1002 __________O___ -1 18.8000 132.700 1 15 11 288
1979269N19133 1979 94 WP MM NOT_NAMED 1979-09-25 15:00:00 NR 18.9703 132.154 main 1008 963 __________P___ -1 18.9703 132.154 1 17 11 288
1979269N19133 1979 94 WP MM NOT_NAMED 1979-09-25 18:00:00 NR 19.1418 131.616 main 963 931 __________P___ -1 19.1418 131.616 1 20 11 289
1979269N19133 1979 94 WP MM NOT_NAMED 1979-09-25 21:00:00 NR 19.3174 131.095 main 931 881 __________P___ -1 19.3174 131.095 1 22 10 290
1979269N19133 1979 94 WP MM NOT_NAMED 1979-09-26 00:00:00 NR 19.5000 130.600 main 881 841 __________O___ -1 19.5000 130.600 1 25 10 292
1979269N19133 1979 94 WP MM NOT_NAMED 1979-09-26 03:00:00 NR 19.6902 130.135 main 832 795 __________P___ -1 19.6902 130.135 1 27 9 294
1979269N19133 1979 94 WP MM NOT_NAMED 1979-09-26 06:00:00 NR 19.8785 129.680 main 795 746 __________P___ -1 19.8785 129.680 1 30 9 293
1979269N19133 1979 94 WP MM NOT_NAMED 1979-09-26 09:00:00 NR 20.0526 129.210 main 748 701 __________P___ -1 20.0526 129.210 1 32 10 289
1979269N19133 1979 94 WP MM NOT_NAMED 1979-09-26 12:00:00 NR 20.2000 128.700 main 701 644 __________O___ -1 20.2000 128.700 2 35 11 284
1979269N19133 1979 94 WP MM NOT_NAMED 1979-09-26 15:00:00 NR 20.3042 128.097 main 644 589 __________P___ -1 20.3042 128.097 2 36 12 279
1979269N19133 1979 94 WP MM NOT_NAMED 1979-09-26 18:00:00 NR 20.3807 127.457 main 589 522 __________P___ -1 20.3807 127.457 2 37 12 277
1979269N19133 1979 94 WP MM NOT_NAMED 1979-09-26 21:00:00 NR 20.4417 126.813 main 522 471 __________P___ -1 20.4417 126.813 2 38 12 276
1979269N19133 1979 94 WP MM NOT_NAMED 1979-09-27 00:00:00 NR 20.5000 126.200 main 471 433 __________O___ -1 20.5000 126.200 2 40 11 278
1979269N19133 1979 94 WP MM NOT_NAMED 1979-09-27 03:00:00 NR 20.5817 125.684 main 433 398 __________P___ -1 20.5817 125.684 2 42 10 280
1979269N19133 1979 94 WP MM NOT_NAMED 1979-09-27 06:00:00 NR 20.6630 125.200 main 398 359 __________P___ -1 20.6630 125.200 2 45 9 280
1979269N19133 1979 94 WP MM NOT_NAMED 1979-09-27 09:00:00 NR 20.7379 124.716 main 359 334 __________P___ -1 20.7379 124.716 2 47 9 278
1979269N19133 1979 94 WP MM NOT_NAMED 1979-09-27 12:00:00 NR 20.8000 124.200 main 334 301 __________O___ -1 20.8000 124.200 2 50 11 273
1979269N19133 1979 94 WP MM NOT_NAMED 1979-09-27 15:00:00 NR 20.7995 123.573 main 301 249 __________P___ -1 20.7995 123.573 2 52 12 270
1979269N19133 1979 94 WP MM NOT_NAMED 1979-09-27 18:00:00 NR 20.7912 122.918 main 240 190 __________P___ -1 20.7912 122.918 2 55 12 271
1979269N19133 1979 94 WP MM NOT_NAMED 1979-09-27 21:00:00 NR 20.8121 122.279 main 190 139 __________P___ -1 20.8121 122.279 2 57 11 275
1979269N19133 1979 94 WP MM NOT_NAMED 1979-09-28 00:00:00 NR 20.9000 121.700 main 139 98 __________O___ -1 20.9000 121.700 2 60 10 288
1979269N19133 1979 94 WP MM NOT_NAMED 1979-09-28 03:00:00 NR 21.1173 121.280 main 98 55 __________P___ -1 21.1173 121.280 2 58 9 304
1979269N19133 1979 94 WP MM NOT_NAMED 1979-09-28 06:00:00 NR 21.4021 120.915 main 55 24 __________P___ -1 21.4021 120.915 2 57 9 311
1979269N19133 1979 94 WP MM NOT_NAMED 1979-09-28 09:00:00 NR 21.7109 120.542 main 30 23 __________P___ -1 21.7109 120.542 2 56 10 308
1979269N19133 1979 94 WP MM NOT_NAMED 1979-09-28 12:00:00 NR 22.0000 120.100 main 59 54 __________O___ -1 22.0000 120.100 2 55 11 298
1979269N19133 1979 94 WP MM NOT_NAMED 1979-09-28 15:00:00 NR 22.2164 119.504 main 88 88 __________P___ -1 22.2164 119.504 2 53 12 289
1979269N19133 1979 94 WP MM NOT_NAMED 1979-09-28 18:00:00 NR 22.4031 118.832 main 150 137 __________P___ -1 22.4031 118.832 2 52 13 285
1979269N19133 1979 94 WP MM NOT_NAMED 1979-09-28 21:00:00 NR 22.5631 118.120 main 133 90 __________P___ -1 22.5631 118.120 2 51 14 283
1979269N19133 1979 94 WP MM NOT_NAMED 1979-09-29 00:00:00 NR 22.7000 117.400 main 90 23 __________O___ -1 22.7000 117.400 2 50 13 281
1979269N19133 1979 94 WP MM NOT_NAMED 1979-09-29 03:00:00 NR 22.8179 116.701 main 23 0 __________P___ -1 22.8179 116.701 2 42 13 280
1979269N19133 1979 94 WP MM NOT_NAMED 1979-09-29 06:00:00 NR 22.9212 116.023 main 0 0 __________P___ -1 22.9212 116.023 2 35 13 279
1979269N19133 1979 94 WP MM NOT_NAMED 1979-09-29 09:00:00 NR 23.0139 115.358 main 0 0 __________P___ -1 23.0139 115.358 2 27 12 278
1979269N19133 1979 94 WP MM NOT_NAMED 1979-09-29 12:00:00 NR 23.1000 114.700 main 0 __________O___ -1 23.1000 114.700 6 20 12 278

デジタル台風データ・検索

IBTrACS Databaseについて

本データベースは、米国NOAAが公開する1842年以降の世界の熱帯低気圧のベストトラックデータアーカイブInternational Best Track Archive for Climate Stewardship (IBTrACS)を、ウェブで閲覧しやすい形式に変換したものです。

最終更新日:2021-10-25